Horseneck Beach, Massachusetts
Current Conditions -  °F | °C
As of 5:53 AM on Monday 22 Dec 2014 (Local Time) from KEWB Reporting Station
Overcast Overcast  
Wind Chill: 29°   Ceiling: 400
Heat Index: 34°   Visibility: 10mi
Dew Point: 33°   Wind: 6mph
Humidity: 96%   Direction: 360°N
Pressure: 30.35"   Gusts: NA
Location:  41.6022°N, 71.0828°W
Report Text: KEWB 221053Z AUTO 36005KT 10SM BKN004 OVC022 01/01 A3035 RMK AO2 SLP277 T00110006
Loading
Personal Weather Stations






























Interactive Weather Map New forecast layout! Learn more

10-Day Weather Forecast

Advertisements
Track Severe Weather on mobile